Time;durP1;ratioP1;P1;durP2;ratioP2;P2;SDS_P1;SDS_P2;PMS_P1;PMS_P2;Temp;Humidity;BMP_temperature;BMP_pressure;BME280_temperature;BME280_humidity;BME280_pressure;Samples;Min_cycle;Max_cycle;Signal;HPM_P1;HPM_P2
2021/05/14 00:00:37;;;;;;;2.63;2.00;;;;;;;9.69;100.00;99588.81;5061665;28;20222;-76
2021/05/14 00:03:04;;;;;;;3.07;2.27;;;;;;;9.69;100.00;99591.41;5062555;28;20191;-76
2021/05/14 00:05:30;;;;;;;1.90;1.80;;;;;;;9.69;100.00;99587.03;5062947;28;20264;-75
2021/05/14 00:07:56;;;;;;;3.00;2.30;;;;;;;9.67;100.00;99586.25;5066055;28;20202;-75
2021/05/14 00:10:23;;;;;;;2.57;2.30;;;;;;;9.66;100.00;99585.44;5066232;28;20199;-75
2021/05/14 00:12:49;;;;;;;2.57;2.37;;;;;;;9.68;100.00;99584.53;5063815;28;20566;-75
2021/05/14 00:15:16;;;;;;;3.70;2.30;;;;;;;9.65;100.00;99575.91;5063010;28;20570;-75
2021/05/14 00:17:43;;;;;;;2.43;2.23;;;;;;;9.66;100.00;99574.19;5063030;28;20736;-76
2021/05/14 00:20:12;;;;;;;3.20;2.37;;;;;;;9.66;100.00;99574.19;5064252;28;20260;-75
2021/05/14 00:22:38;;;;;;;2.30;2.10;;;;;;;9.65;100.00;99572.47;5064384;28;20758;-75
2021/05/14 00:25:07;;;;;;;3.10;2.40;;;;;;;9.60;100.00;99567.47;5061795;28;20688;-76
2021/05/14 00:27:33;;;;;;;3.40;2.00;;;;;;;9.61;100.00;99571.75;5066046;28;20181;-76
2021/05/14 00:30:00;;;;;;;2.53;2.10;;;;;;;9.62;100.00;99576.06;5066609;28;20286;-75
2021/05/14 00:32:30;;;;;;;2.20;2.00;;;;;;;9.63;100.00;99574.28;5060673;28;20219;-74
2021/05/14 00:34:59;;;;;;;3.80;2.10;;;;;;;9.61;100.00;99576.94;5059423;28;20221;-74
2021/05/14 00:37:25;;;;;;;3.80;1.97;;;;;;;9.60;100.00;99571.81;5062771;28;20205;-75
2021/05/14 00:39:52;;;;;;;2.87;2.17;;;;;;;9.59;100.00;99575.31;5063412;28;20230;-76
2021/05/14 00:42:18;;;;;;;2.00;1.80;;;;;;;9.57;100.00;99580.59;5067513;28;20230;-75
2021/05/14 00:44:45;;;;;;;2.37;2.17;;;;;;;9.57;100.00;99577.97;5061787;28;20851;-76
2021/05/14 00:47:13;;;;;;;1.97;1.83;;;;;;;9.58;100.00;99578.81;5064695;28;20202;-77
2021/05/14 00:49:43;;;;;;;2.50;2.30;;;;;;;9.56;100.00;99576.28;5064934;28;20204;-75
2021/05/14 00:52:13;;;;;;;3.43;2.27;;;;;;;9.57;100.00;99577.13;5061360;28;20632;-75
2021/05/14 00:54:40;;;;;;;2.30;2.10;;;;;;;9.58;100.00;99578.81;5063658;28;20234;-75
2021/05/14 00:57:07;;;;;;;2.20;2.00;;;;;;;9.55;100.00;99574.59;5064985;28;20198;-75
2021/05/14 00:59:34;;;;;;;3.27;2.40;;;;;;;9.55;100.00;99584.13;5063401;28;20209;-75
2021/05/14 01:02:00;;;;;;;2.40;2.20;;;;;;;9.57;100.00;99580.59;5055345;28;20865;-75
2021/05/14 01:04:26;;;;;;;2.57;2.20;;;;;;;9.55;100.00;99582.41;5050829;28;20227;-75
2021/05/14 01:06:53;;;;;;;2.60;2.40;;;;;;;9.53;100.00;99583.34;5056671;28;20232;-75
2021/05/14 01:09:20;;;;;;;2.57;2.33;;;;;;;9.52;100.00;99579.91;5062534;28;20219;-76
2021/05/14 01:11:46;;;;;;;2.40;2.10;;;;;;;9.52;100.00;99577.31;5066859;28;20276;-76
2021/05/14 01:14:12;;;;;;;3.87;2.10;;;;;;;9.52;100.00;99579.91;5058710;28;20199;-75
2021/05/14 01:16:38;;;;;;;2.53;2.33;;;;;;;9.51;100.00;99579.97;5063989;28;20209;-75
2021/05/14 01:19:04;;;;;;;2.50;2.30;;;;;;;9.51;100.00;99578.22;5075011;28;20226;-75
2021/05/14 01:21:31;;;;;;;2.80;2.17;;;;;;;9.52;100.00;99579.06;5061482;28;20690;-75
2021/05/14 01:23:57;;;;;;;2.27;2.07;;;;;;;9.53;100.00;99576.38;5061621;28;20289;-75
2021/05/14 01:26:26;;;;;;;2.10;1.90;;;;;;;9.51;100.00;99573.00;5063033;28;20619;-76
2021/05/14 01:28:53;;;;;;;3.40;2.30;;;;;;;9.52;100.00;99576.47;5062210;28;20216;-74
2021/05/14 01:31:20;;;;;;;2.67;2.23;;;;;;;9.52;100.00;99581.69;5063125;28;20222;-75
2021/05/14 01:33:47;;;;;;;2.70;2.17;;;;;;;9.51;100.00;99578.22;5062448;28;20199;-75
2021/05/14 01:36:14;;;;;;;2.40;2.20;;;;;;;9.53;100.00;99578.16;5063513;28;20206;-75
2021/05/14 01:38:41;;;;;;;3.20;2.47;;;;;;;9.52;100.00;99574.72;5063846;28;20201;-76
2021/05/14 01:41:07;;;;;;;2.87;2.20;;;;;;;9.51;100.00;99579.97;5064065;28;20241;-75
2021/05/14 01:43:34;;;;;;;2.80;2.33;;;;;;;9.50;100.00;99579.13;5061178;28;20564;-75
2021/05/14 01:46:02;;;;;;;3.33;2.20;;;;;;;9.50;100.00;99584.34;5068100;28;20310;-75
2021/05/14 01:48:28;;;;;;;3.57;2.70;;;;;;;9.49;100.00;99585.22;5061200;28;20234;-76
2021/05/14 01:50:54;;;;;;;3.07;2.60;;;;;;;9.47;100.00;99585.28;5061303;28;20213;-76
2021/05/14 01:53:20;;;;;;;4.77;3.13;;;;;;;9.47;100.00;99579.25;5061042;28;20210;-75
2021/05/14 01:55:47;;;;;;;3.90;2.87;;;;;;;9.50;100.00;99580.88;5062595;28;20823;-76
2021/05/14 01:58:14;;;;;;;2.90;2.60;;;;;;;9.52;100.00;99585.13;5060168;28;20200;-75
2021/05/14 02:00:40;;;;;;;3.17;2.67;;;;;;;9.52;100.00;99582.50;5058189;28;20261;-75
2021/05/14 02:03:06;;;;;;;3.27;2.80;;;;;;;9.51;100.00;99585.16;5061824;28;20205;-76
2021/05/14 02:05:32;;;;;;;3.80;3.00;;;;;;;9.47;100.00;99580.06;5061594;28;20786;-75
2021/05/14 02:07:58;;;;;;;4.17;2.80;;;;;;;9.48;100.00;99579.19;5061717;28;20202;-76
2021/05/14 02:10:24;;;;;;;3.67;2.30;;;;;;;9.49;100.00;99582.63;5063786;28;20684;-75
2021/05/14 02:12:51;;;;;;;4.60;3.30;;;;;;;9.48;100.00;99584.38;5060313;28;20217;-76
2021/05/14 02:15:17;;;;;;;3.03;2.43;;;;;;;9.49;100.00;99585.22;5063361;28;20213;-76
2021/05/14 02:17:44;;;;;;;5.40;3.17;;;;;;;9.49;100.00;99593.03;5063247;28;20726;-75
2021/05/14 02:20:12;;;;;;;6.47;2.87;;;;;;;9.50;100.00;99588.66;5058261;28;20223;-75
2021/05/14 02:22:38;;;;;;;4.00;3.07;;;;;;;9.50;100.00;99588.66;5059719;28;20226;-76
2021/05/14 02:25:06;;;;;;;3.87;3.10;;;;;;;9.50;100.00;99583.47;5064566;28;20201;-75
2021/05/14 02:27:33;;;;;;;4.03;2.87;;;;;;;9.48;100.00;99589.59;5059753;28;20233;-75
2021/05/14 02:30:00;;;;;;;3.80;2.87;;;;;;;9.50;100.00;99586.06;5063452;28;20587;-74
2021/05/14 02:32:26;;;;;;;3.90;3.03;;;;;;;9.50;100.00;99580.88;5059382;28;20703;-74
2021/05/14 02:34:52;;;;;;;4.93;3.30;;;;;;;9.49;100.00;99590.44;5061631;28;20317;-75
2021/05/14 02:37:18;;;;;;;2.63;2.40;;;;;;;9.48;100.00;99588.75;5059763;28;20695;-76
2021/05/14 02:39:44;;;;;;;6.67;3.47;;;;;;;9.47;100.00;99585.28;5065123;28;20323;-75
2021/05/14 02:42:10;;;;;;;3.93;2.97;;;;;;;9.50;100.00;99589.53;5058410;28;20218;-75
2021/05/14 02:44:36;;;;;;;4.33;3.13;;;;;;;9.48;100.00;99594.78;5062267;28;20206;-75
2021/05/14 02:47:04;;;;;;;5.30;3.40;;;;;;;9.46;100.00;99587.94;5056538;28;20202;-76
2021/05/14 02:49:29;;;;;;;3.93;3.07;;;;;;;9.48;100.00;99589.59;5061375;28;20241;-75
2021/05/14 02:51:55;;;;;;;4.37;2.90;;;;;;;9.49;100.00;99595.63;5059712;28;20419;-75
2021/05/14 02:54:22;;;;;;;4.30;2.80;;;;;;;9.47;100.00;99592.25;5068326;28;20610;-76
2021/05/14 02:56:48;;;;;;;4.00;3.20;;;;;;;9.47;100.00;99594.84;5059474;28;20275;-75
2021/05/14 02:59:14;;;;;;;3.47;2.83;;;;;;;9.48;100.00;99589.59;5064884;28;20198;-75
2021/05/14 03:01:40;;;;;;;3.83;2.90;;;;;;;9.49;100.00;99593.03;5059505;28;20699;-75
2021/05/14 03:04:07;;;;;;;4.43;3.37;;;;;;;9.47;100.00;99585.28;5055920;28;20314;-76
2021/05/14 03:06:33;;;;;;;7.33;3.10;;;;;;;9.46;100.00;99587.94;5056379;28;20211;-76
2021/05/14 03:08:59;;;;;;;5.07;3.10;;;;;;;9.48;100.00;99591.34;5059897;28;20215;-75
2021/05/14 03:11:25;;;;;;;3.40;2.67;;;;;;;9.47;100.00;99585.28;5055225;28;20340;-75
2021/05/14 03:13:51;;;;;;;3.83;3.00;;;;;;;9.48;100.00;99586.16;5066378;28;20211;-75
2021/05/14 03:16:17;;;;;;;5.00;3.13;;;;;;;9.45;100.00;99581.91;5072210;28;20255;-75
2021/05/14 03:18:46;;;;;;;3.60;3.23;;;;;;;9.48;100.00;99581.78;5058653;28;20284;-75
2021/05/14 03:21:13;;;;;;;3.60;2.93;;;;;;;9.47;100.00;99580.06;5057760;28;20283;-75
2021/05/14 03:23:39;;;;;;;4.90;2.87;;;;;;;9.48;100.00;99583.56;5059660;28;20198;-75
2021/05/14 03:26:06;;;;;;;3.77;3.00;;;;;;;9.48;100.00;99583.56;5057851;28;20210;-75
2021/05/14 03:28:32;;;;;;;3.73;2.90;;;;;;;9.47;100.00;99581.84;5061286;28;20270;-75
2021/05/14 03:30:58;;;;;;;3.80;2.93;;;;;;;9.46;100.00;99582.72;5043543;28;20226;-75
2021/05/14 03:33:24;;;;;;;4.57;3.07;;;;;;;9.45;100.00;99581.91;5059806;28;20766;-75
2021/05/14 03:35:53;;;;;;;5.03;3.30;;;;;;;9.44;100.00;99589.75;5059540;28;20194;-75
2021/05/14 03:38:22;;;;;;;3.93;3.23;;;;;;;9.45;100.00;99586.25;5058281;28;20566;-75
2021/05/14 03:40:49;;;;;;;4.00;3.10;;;;;;;9.45;100.00;99586.25;5064833;28;20313;-75
2021/05/14 03:43:15;;;;;;;3.20;2.80;;;;;;;9.46;100.00;99586.22;5061152;28;20206;-75
2021/05/14 03:45:41;;;;;;;3.40;2.93;;;;;;;9.45;100.00;99591.47;5059173;28;20222;-75
2021/05/14 03:48:18;;;;;;;4.10;3.30;;;;;;;9.45;100.00;99588.84;5062004;28;20665;-75
2021/05/14 03:50:45;;;;;;;4.20;3.37;;;;;;;9.46;100.00;99595.75;5063238;28;20594;-75
2021/05/14 03:53:11;;;;;;;3.60;3.00;;;;;;;9.45;100.00;99597.50;5064210;28;20323;-75
2021/05/14 03:55:38;;;;;;;5.77;2.90;;;;;;;9.47;100.00;99594.84;5058818;28;20221;-75
2021/05/14 03:58:04;;;;;;;4.50;3.73;;;;;;;9.46;100.00;99598.34;5074637;28;20229;-75
2021/05/14 04:00:30;;;;;;;6.00;3.80;;;;;;;9.48;100.00;99592.19;5068901;28;20222;-75
2021/05/14 04:02:56;;;;;;;6.63;4.33;;;;;;;9.48;100.00;99593.97;5056295;28;20781;-75
2021/05/14 04:05:23;;;;;;;5.07;3.70;;;;;;;9.45;100.00;99589.69;5060550;28;20265;-74
2021/05/14 04:07:49;;;;;;;4.17;3.77;;;;;;;9.44;100.00;99592.34;5056636;28;20205;-75
2021/05/14 04:10:19;;;;;;;5.27;3.30;;;;;;;9.43;100.00;99601.91;5062475;28;20198;-75
2021/05/14 04:15:30;;;;;;;5.80;3.47;;;;;;;9.41;100.00;99598.53;5061123;28;20289;-74
2021/05/14 04:17:56;;;;;;;3.13;2.83;;;;;;;9.38;100.00;99596.03;5059875;28;20210;-75
2021/05/14 04:20:22;;;;;;;3.53;2.93;;;;;;;9.41;100.00;99598.53;5065219;28;20710;-74
2021/05/14 04:22:50;;;;;;;4.30;2.93;;;;;;;9.39;100.00;99608.16;5065555;28;20211;-75
2021/05/14 04:25:16;;;;;;;3.00;2.70;;;;;;;9.38;100.00;99608.22;5060065;28;20199;-76
2021/05/14 04:27:42;;;;;;;3.03;2.73;;;;;;;9.39;100.00;99600.34;5073749;28;21764;-76
2021/05/14 04:30:10;;;;;;;4.87;2.87;;;;;;;9.43;100.00;99604.53;5067617;28;20679;-75
2021/05/14 04:32:36;;;;;;;4.30;2.70;;;;;;;9.43;100.00;99608.88;5062141;28;20226;-74
2021/05/14 04:35:03;;;;;;;2.67;2.30;;;;;;;9.42;100.00;99609.78;5068359;28;20682;-74
2021/05/14 04:37:28;;;;;;;3.50;2.87;;;;;;;9.43;100.00;99607.13;5065544;28;20644;-75
2021/05/14 04:39:55;;;;;;;3.97;2.73;;;;;;;9.44;100.00;99605.38;5066168;28;20222;-75
2021/05/14 04:42:21;;;;;;;4.60;2.93;;;;;;;9.45;100.00;99613.13;5062651;28;20951;-74
2021/05/14 04:44:47;;;;;;;3.27;2.80;;;;;;;9.49;100.00;99611.25;5063503;28;20594;-75
2021/05/14 04:47:13;;;;;;;3.63;3.13;;;;;;;9.46;100.00;99613.97;5064507;28;20213;-75
2021/05/14 04:49:40;;;;;;;4.60;2.70;;;;;;;9.48;100.00;99614.78;5068426;28;20252;-75
2021/05/14 04:52:18;;;;;;;3.83;3.40;;;;;;;9.45;100.00;99615.72;5067337;28;20685;-76
2021/05/14 04:54:44;;;;;;;3.60;3.07;;;;;;;9.47;100.00;99613.91;5067442;28;20697;-75
2021/05/14 04:57:11;;;;;;;4.77;3.27;;;;;;;9.47;100.00;99607.84;5060963;28;20903;-73
2021/05/14 04:59:37;;;;;;;5.20;3.83;;;;;;;9.48;100.00;99605.19;5046738;28;20373;-75
2021/05/14 05:02:06;;;;;;;4.87;3.90;;;;;;;9.42;100.00;99608.03;5069755;28;20225;-76
2021/05/14 05:04:34;;;;;;;5.57;4.33;;;;;;;9.44;100.00;99611.41;5073527;28;20221;-75
2021/05/14 05:07:00;;;;;;;4.60;3.90;;;;;;;9.43;100.00;99621.91;5065997;28;20256;-77
2021/05/14 05:09:26;;;;;;;7.60;4.70;;;;;;;9.47;100.00;99624.31;5067655;28;20203;-76
2021/05/14 05:11:52;;;;;;;5.27;4.17;;;;;;;9.45;100.00;99623.53;5067548;28;20219;-75
2021/05/14 05:14:18;;;;;;;5.60;4.33;;;;;;;9.42;100.00;99621.03;5078773;28;20226;-76
2021/05/14 05:16:44;;;;;;;4.33;3.63;;;;;;;9.44;100.00;99624.41;5072360;28;20786;-74
2021/05/14 05:19:10;;;;;;;5.40;3.60;;;;;;;9.47;100.00;99624.31;5070271;28;20281;-74
2021/05/14 05:21:37;;;;;;;6.63;4.03;;;;;;;9.48;100.00;99625.19;5063683;28;20272;-77
2021/05/14 05:24:04;;;;;;;5.60;3.43;;;;;;;9.50;100.00;99628.56;5069660;28;20202;-77
2021/05/14 05:26:30;;;;;;;4.93;3.80;;;;;;;9.49;100.00;99637.28;5068961;28;21120;-74
2021/05/14 05:28:56;;;;;;;7.07;3.47;;;;;;;9.53;100.00;99625.81;5067923;28;20262;-77
2021/05/14 05:31:25;;;;;;;6.00;4.40;;;;;;;9.58;100.00;99633.47;5070473;28;20864;-76
2021/05/14 05:33:51;;;;;;;4.70;4.17;;;;;;;9.57;100.00;99632.63;5084534;28;20241;-77
2021/05/14 05:36:18;;;;;;;5.37;3.70;;;;;;;9.55;100.00;99631.84;5077916;28;20254;-77
2021/05/14 05:38:45;;;;;;;4.50;3.63;;;;;;;9.58;100.00;99644.72;5072234;28;20610;-74
2021/05/14 05:41:11;;;;;;;5.43;3.87;;;;;;;9.54;100.00;99639.72;5072646;28;20213;-77
2021/05/14 05:43:37;;;;;;;5.03;3.87;;;;;;;9.54;100.00;99643.16;5068784;28;20353;-77
2021/05/14 05:46:03;;;;;;;4.93;3.80;;;;;;;9.55;100.00;99649.19;5066290;28;20314;-76
2021/05/14 05:48:29;;;;;;;5.20;3.83;;;;;;;9.58;100.00;99654.28;5072217;28;20210;-76
2021/05/14 05:50:55;;;;;;;8.63;3.80;;;;;;;9.62;100.00;99654.13;5068201;28;20274;-75
2021/05/14 05:53:21;;;;;;;5.33;3.90;;;;;;;9.63;100.00;99653.19;5067125;28;20201;-76
2021/05/14 05:55:49;;;;;;;6.20;4.30;;;;;;;9.62;100.00;99654.13;5046980;28;20229;-75
2021/05/14 05:58:16;;;;;;;7.77;4.70;;;;;;;9.66;100.00;99652.25;5069536;28;20235;-75
2021/05/14 06:00:43;;;;;;;5.30;3.93;;;;;;;9.71;100.00;99657.28;5066316;28;20617;-77
2021/05/14 06:03:11;;;;;;;8.70;4.43;;;;;;;9.74;100.00;99663.22;5062493;28;20213;-75
2021/05/14 06:05:37;;;;;;;6.33;4.40;;;;;;;9.75;100.00;99661.47;5083460;28;20752;-77
2021/05/14 06:08:03;;;;;;;5.87;4.53;;;;;;;9.78;100.00;99661.34;5069116;28;20209;-77
2021/05/14 06:10:29;;;;;;;5.87;4.47;;;;;;;9.78;100.00;99661.34;5071980;28;20197;-76
2021/05/14 06:12:56;;;;;;;8.07;4.90;;;;;;;9.81;100.00;99667.28;5050613;28;20199;-76
2021/05/14 06:15:22;;;;;;;7.07;4.77;;;;;;;9.80;100.00;99664.75;5067496;28;20202;-73
2021/05/14 06:17:49;;;;;;;7.87;5.43;;;;;;;9.81;100.00;99669.88;5064794;28;20634;-74
2021/05/14 06:20:19;;;;;;;8.03;4.63;;;;;;;9.83;100.00;99665.47;5067822;28;20644;-77
2021/05/14 06:22:45;;;;;;;9.80;5.63;;;;;;;9.81;100.00;99671.63;5066334;28;20218;-74
2021/05/14 06:25:12;;;;;;;7.93;5.23;;;;;;;9.82;100.00;99668.97;5066418;28;20209;-74
2021/05/14 06:27:38;;;;;;;9.53;5.77;;;;;;;9.86;100.00;99675.75;5069537;28;20217;-74
2021/05/14 06:30:06;;;;;;;8.60;5.93;;;;;;;9.85;100.00;99675.84;5065082;28;20214;-76
2021/05/14 06:32:33;;;;;;;8.17;5.17;;;;;;;9.82;100.00;99681.16;5070121;28;20610;-77
2021/05/14 06:34:59;;;;;;;8.40;6.13;;;;;;;9.84;100.00;99676.75;5071401;28;20206;-74
2021/05/14 06:37:25;;;;;;;7.40;5.40;;;;;;;9.80;100.00;99681.22;5062368;28;20281;-74
2021/05/14 06:39:51;;;;;;;7.03;4.90;;;;;;;9.78;100.00;99683.03;5070800;28;20335;-73
2021/05/14 06:42:17;;;;;;;11.10;5.67;;;;;;;9.80;100.00;99685.59;5067073;28;20256;-75
2021/05/14 06:44:43;;;;;;;7.57;5.87;;;;;;;9.78;100.00;99689.97;5068186;28;20210;-74
2021/05/14 06:47:10;;;;;;;5.97;5.00;;;;;;;9.77;100.00;99686.53;5060875;28;20199;-75
2021/05/14 06:49:36;;;;;;;7.20;4.97;;;;;;;9.74;100.00;99685.78;5069596;28;20713;-77
2021/05/14 06:52:03;;;;;;;8.23;5.83;;;;;;;9.70;100.00;99694.63;5067493;28;20226;-77
2021/05/14 06:54:29;;;;;;;6.70;5.20;;;;;;;9.71;100.00;99691.09;5065468;28;20607;-77
2021/05/14 06:56:55;;;;;;;6.50;4.90;;;;;;;9.70;100.00;99689.44;5067136;28;20297;-76
2021/05/14 06:59:21;;;;;;;6.70;4.80;;;;;;;9.74;100.00;99697.03;5068473;28;20241;-75
2021/05/14 07:01:47;;;;;;;8.67;5.23;;;;;;;9.71;100.00;99707.59;5066564;28;20940;-75
2021/05/14 07:04:15;;;;;;;7.40;5.37;;;;;;;9.74;100.00;99691.00;5065631;28;20631;-77
2021/05/14 07:06:41;;;;;;;7.50;6.07;;;;;;;9.75;100.00;99697.91;5077895;28;20208;-76
2021/05/14 07:09:07;;;;;;;6.10;4.90;;;;;;;9.78;100.00;99698.66;5066628;28;20201;-77
2021/05/14 07:11:33;;;;;;;6.73;4.63;;;;;;;9.78;100.00;99689.97;5067691;28;20225;-77
2021/05/14 07:13:59;;;;;;;6.13;4.57;;;;;;;9.78;100.00;99700.38;5059797;28;20207;-76
2021/05/14 07:16:25;;;;;;;6.23;4.40;;;;;;;9.82;100.00;99704.59;5062647;28;20286;-75
2021/05/14 07:18:51;;;;;;;5.57;4.50;;;;;;;9.88;100.00;99709.56;5078173;28;20733;-76
2021/05/14 07:21:18;;;;;;;5.43;3.83;;;;;;;9.92;100.00;99705.06;5069400;28;20223;-77
2021/05/14 07:23:44;;;;;;;6.50;4.30;;;;;;;9.97;100.00;99713.56;5045377;28;20190;-76
2021/05/14 07:26:10;;;;;;;6.33;4.50;;;;;;;10.01;100.00;99708.19;5063797;28;20292;-76
2021/05/14 07:28:36;;;;;;;6.03;3.93;;;;;;;9.94;100.00;99718.91;5064635;28;20201;-75
2021/05/14 07:31:02;;;;;;;5.80;3.80;;;;;;;9.90;100.00;99720.75;5067392;28;20280;-76
2021/05/14 07:33:28;;;;;;;4.77;3.83;;;;;;;9.95;100.00;99715.38;5070156;28;20248;-76
2021/05/14 07:35:54;;;;;;;4.83;3.77;;;;;;;9.92;100.00;99726.78;5059226;28;20199;-75
2021/05/14 07:38:21;;;;;;;4.90;3.30;;;;;;;9.94;100.00;99721.50;5064037;28;20889;-75
2021/05/14 07:40:47;;;;;;;5.73;3.60;;;;;;;10.08;100.00;99724.44;5065994;28;20228;-75
2021/05/14 07:43:13;;;;;;;6.83;3.97;;;;;;;10.15;100.00;99728.50;5068421;28;20213;-76
2021/05/14 07:45:39;;;;;;;6.90;3.83;;;;;;;10.27;100.00;99727.16;5061036;28;20227;-75
2021/05/14 07:48:19;;;;;;;5.37;3.50;;;;;;;10.44;100.00;99717.88;5056891;28;20333;-75
2021/05/14 07:50:46;;;;;;;6.77;3.97;;;;;;;10.63;100.00;99718.81;5065508;28;20245;-77
2021/05/14 07:53:12;;;;;;;5.47;3.93;;;;;;;10.74;100.00;99726.19;5071641;28;20203;-77
2021/05/14 07:55:39;;;;;;;4.47;3.47;;;;;;;10.75;100.00;99718.31;5065690;28;20292;-75
2021/05/14 07:58:05;;;;;;;5.53;3.43;;;;;;;10.75;100.00;99720.94;5057230;28;20200;-76
2021/05/14 08:00:31;;;;;;;4.23;3.07;;;;;;;10.88;100.00;99726.47;5069772;28;20259;-77
2021/05/14 08:02:57;;;;;;;4.40;3.00;;;;;;;10.93;100.00;99721.06;5071007;28;20218;-75
2021/05/14 08:05:23;;;;;;;3.90;2.77;;;;;;;10.97;100.00;99731.28;5052334;28;20206;-72
2021/05/14 08:07:59;;;;;;;4.10;2.60;;;;;;;10.94;100.00;99730.56;5068597;28;20198;-74
2021/05/14 08:10:25;;;;;;;4.17;2.60;;;;;;;10.93;100.00;99732.34;5066713;28;20204;-77
2021/05/14 08:12:52;;;;;;;4.13;2.97;;;;;;;10.89;100.00;99730.78;5068521;28;20299;-76
2021/05/14 08:15:18;;;;;;;2.83;2.43;;;;;;;10.81;100.00;99732.84;5071233;28;20233;-75
2021/05/14 08:17:47;;;;;;;2.37;2.10;;;;;;;10.82;100.00;99731.09;5068369;28;20256;-76
2021/05/14 08:20:13;;;;;;;3.33;2.13;;;;;;;10.70;100.00;99735.91;5067972;28;20730;-75
2021/05/14 08:22:44;;;;;;;2.83;2.10;;;;;;;10.65;100.00;99735.25;5067621;28;20269;-77
2021/05/14 08:25:12;;;;;;;2.23;2.00;;;;;;;10.65;100.00;99744.84;5066036;28;20195;-72
2021/05/14 08:27:39;;;;;;;4.17;2.10;;;;;;;10.63;100.00;99738.84;5072701;28;20210;-76
2021/05/14 08:30:08;;;;;;;2.60;1.90;;;;;;;10.60;100.00;99745.00;5051716;28;20234;-74
2021/05/14 08:32:34;;;;;;;6.77;2.03;;;;;;;10.60;100.00;99739.78;5062528;28;20212;-76
2021/05/14 08:35:00;;;;;;;2.70;2.20;;;;;;;10.55;100.00;99749.56;5076259;28;20206;-77
2021/05/14 08:37:26;;;;;;;4.03;2.27;;;;;;;10.47;100.00;99749.88;5078958;28;20382;-76
2021/05/14 08:39:52;;;;;;;3.30;2.30;;;;;;;10.48;100.00;99755.91;5063766;28;20211;-76
2021/05/14 08:42:19;;;;;;;2.87;1.70;;;;;;;10.50;100.00;99754.09;5064792;28;20234;-75
2021/05/14 08:44:45;;;;;;;2.10;1.90;;;;;;;10.67;100.00;99750.81;5065043;28;20623;-77
2021/05/14 08:47:12;;;;;;;2.73;1.57;;;;;;;10.84;98.66;99765.78;5080505;28;20198;-74
2021/05/14 08:49:39;;;;;;;3.23;1.67;;;;;;;10.91;97.42;99764.63;5063092;28;20550;-77
2021/05/14 08:52:09;;;;;;;1.40;1.30;;;;;;;11.06;98.07;99761.38;5050907;28;20233;-77
2021/05/14 08:54:36;;;;;;;2.27;1.90;;;;;;;11.14;97.22;99759.28;5082254;28;20196;-76
2021/05/14 08:57:02;;;;;;;2.20;1.80;;;;;;;11.25;97.27;99763.22;5065159;28;20280;-76
2021/05/14 08:59:28;;;;;;;2.43;1.43;;;;;;;11.34;98.12;99761.06;5067197;28;20207;-76
2021/05/14 09:01:54;;;;;;;3.30;1.80;;;;;;;11.29;97.41;99764.75;5067645;28;20610;-75
2021/05/14 09:04:21;;;;;;;1.90;1.57;;;;;;;11.29;97.12;99768.25;5064778;28;20290;-76
2021/05/14 09:06:47;;;;;;;4.83;1.67;;;;;;;11.35;93.30;99772.34;5066377;28;20195;-76
2021/05/14 09:09:15;;;;;;;2.33;1.57;;;;;;;11.43;92.77;99774.63;5067925;28;20302;-74
2021/05/14 09:11:43;;;;;;;2.20;1.67;;;;;;;11.59;94.93;99780.03;5048461;28;20215;-76
2021/05/14 09:14:31;;;;;;;3.40;1.60;;;;;;;11.54;95.02;99778.47;5066260;28;20203;-76
2021/05/14 09:17:05;;;;;;;4.50;1.30;;;;;;;11.52;91.99;99797.69;5059811;28;20207;-76
2021/05/14 09:19:34;;;;;;;3.57;1.90;;;;;;;11.53;92.21;99802.03;5066020;28;20198;-77
2021/05/14 09:22:08;;;;;;;2.13;1.47;;;;;;;11.58;93.24;99796.63;5064856;28;20230;-76
2021/05/14 09:24:34;;;;;;;2.50;2.00;;;;;;;11.55;94.37;99798.41;5062623;28;20201;-77
2021/05/14 09:27:00;;;;;;;2.63;1.50;;;;;;;11.48;93.94;99801.38;5068635;28;20196;-76
2021/05/14 09:29:37;;;;;;;1.33;1.20;;;;;;;11.47;92.32;99810.13;5065856;28;20206;-75
2021/05/14 09:32:20;;;;;;;2.03;1.20;;;;;;;11.48;92.40;99802.22;5064928;28;20252;-77
2021/05/14 09:34:52;;;;;;;1.60;1.13;;;;;;;11.58;91.41;99805.28;5069927;28;20238;-75
2021/05/14 09:37:19;;;;;;;2.23;1.20;;;;;;;11.70;91.52;99815.19;5062957;28;20576;-74
2021/05/14 09:39:46;;;;;;;3.40;1.30;;;;;;;11.75;90.00;99821.06;5063802;28;20306;-76
2021/05/14 09:42:13;;;;;;;2.47;1.30;;;;;;;11.75;89.68;99817.63;5061415;28;20893;-76
2021/05/14 09:44:39;;;;;;;2.07;1.10;;;;;;;11.83;92.90;99818.13;5061023;28;20210;-74
2021/05/14 09:47:05;;;;;;;1.47;1.20;;;;;;;11.78;90.32;99819.25;5062863;28;20205;-74
2021/05/14 09:49:33;;;;;;;1.47;1.20;;;;;;;11.75;90.91;99817.63;5066747;28;20196;-74
2021/05/14 09:52:04;;;;;;;1.57;1.30;;;;;;;11.67;89.63;99820.53;5062724;28;20759;-74
2021/05/14 09:54:32;;;;;;;2.03;1.10;;;;;;;11.69;92.12;99821.31;5063619;28;20209;-74
2021/05/14 09:57:25;;;;;;;1.23;1.10;;;;;;;11.55;89.98;99826.28;5061625;28;20281;-74
2021/05/14 09:59:53;;;;;;;2.37;1.00;;;;;;;11.61;91.23;99817.34;5060513;28;20210;-74
2021/05/14 10:02:23;;;;;;;2.37;0.97;;;;;;;11.82;92.72;99812.94;5061570;28;20629;-74
2021/05/14 10:04:50;;;;;;;1.77;1.00;;;;;;;11.82;90.84;99824.28;5065544;28;20897;-74
2021/05/14 10:07:18;;;;;;;1.23;1.10;;;;;;;11.75;91.31;99826.28;5061218;28;20200;-74
2021/05/14 10:09:47;;;;;;;1.43;0.90;;;;;;;11.71;91.12;99818.66;5063225;28;20203;-74
2021/05/14 10:12:15;;;;;;;1.17;0.90;;;;;;;11.70;90.19;99814.34;5061582;28;20222;-74
2021/05/14 10:14:44;;;;;;;2.80;1.00;;;;;;;11.76;88.86;99816.69;5061062;28;20208;-74
2021/05/14 10:17:10;;;;;;;3.37;1.07;;;;;;;11.95;89.09;99818.53;5076843;28;20229;-74
2021/05/14 10:19:37;;;;;;;1.37;1.00;;;;;;;11.95;88.58;99819.38;5060485;28;20200;-74
2021/05/14 10:22:04;;;;;;;1.30;1.20;;;;;;;11.98;88.58;99827.09;5058911;28;20566;-75
2021/05/14 10:24:38;;;;;;;0.77;0.77;;;;;;;12.00;89.25;99816.56;5074971;28;20673;-74
2021/05/14 10:27:16;;;;;;;1.57;0.90;;;;;;;11.96;85.96;99838.50;5042685;28;21002;-74
2021/05/14 10:29:43;;;;;;;1.73;0.93;;;;;;;12.08;87.24;99825.75;5057304;28;20231;-75
2021/05/14 10:32:10;;;;;;;1.13;0.90;;;;;;;12.00;85.09;99825.25;5079412;28;20281;-75
2021/05/14 10:34:36;;;;;;;0.93;0.90;;;;;;;11.99;87.23;99838.38;5065282;28;20572;-74
2021/05/14 10:37:02;;;;;;;1.03;0.93;;;;;;;11.98;86.85;99842.75;5066121;28;20204;-75
2021/05/14 10:39:40;;;;;;;2.97;0.90;;;;;;;12.09;86.02;99827.44;5066082;28;20969;-75
2021/05/14 10:42:08;;;;;;;1.40;0.63;;;;;;;12.30;86.06;99832.63;5061561;28;20248;-75
2021/05/14 10:44:42;;;;;;;1.67;0.87;;;;;;;12.46;86.00;99825.75;5060955;28;20835;-75
2021/05/14 10:47:44;;;;;;;0.90;0.73;;;;;;;12.58;85.83;99820.88;5061507;28;20224;-75
2021/05/14 10:50:31;;;;;;;1.33;0.80;;;;;;;12.44;85.07;99834.59;5058393;28;20287;-75
2021/05/14 10:53:27;;;;;;;1.10;0.60;;;;;;;12.29;84.41;99836.13;5062166;28;20671;-75
2021/05/14 10:55:55;;;;;;;0.90;0.70;;;;;;;12.08;85.02;99832.72;5060088;28;20214;-75
2021/05/14 10:58:44;;;;;;;1.10;0.80;;;;;;;12.04;85.72;99839.00;5077177;28;20195;-75
2021/05/14 11:01:30;;;;;;;1.90;0.97;;;;;;;12.02;87.63;99826.03;5059777;28;20240;-75
2021/05/14 11:03:57;;;;;;;1.43;0.70;;;;;;;12.00;87.26;99835.69;5064328;28;20665;-75
2021/05/14 11:06:24;;;;;;;1.13;0.87;;;;;;;12.08;86.63;99832.72;5057782;28;20201;-74
2021/05/14 11:09:05;;;;;;;1.40;0.70;;;;;;;12.11;85.02;99843.03;5063692;28;20209;-75
2021/05/14 11:11:32;;;;;;;1.03;0.80;;;;;;;12.19;85.08;99842.69;5060530;28;20316;-75
2021/05/14 11:14:14;;;;;;;2.40;0.80;;;;;;;12.27;87.20;99848.44;5059872;28;20211;-75
2021/05/14 11:16:42;;;;;;;1.37;0.90;;;;;;;12.19;83.39;99853.13;5071346;28;20201;-75
2021/05/14 11:19:16;;;;;;;2.30;0.80;;;;;;;12.19;84.74;99854.00;5061482;28;20873;-76
2021/05/14 11:22:01;;;;;;;0.90;0.70;;;;;;;12.08;83.90;99856.25;5059089;28;20235;-77
2021/05/14 11:24:32;;;;;;;1.20;1.00;;;;;;;12.06;83.10;99861.53;5062926;28;20212;-77
2021/05/14 11:27:08;;;;;;;2.10;0.93;;;;;;;12.13;84.54;99857.72;5058029;28;20207;-77
2021/05/14 11:29:36;;;;;;;0.80;0.70;;;;;;;12.21;85.31;99852.19;5059184;28;20200;-74
2021/05/14 11:32:20;;;;;;;0.80;0.67;;;;;;;12.36;85.05;99855.84;5060193;28;20286;-77
2021/05/14 11:35:08;;;;;;;2.60;0.93;;;;;;;12.44;85.51;99853.72;5062385;28;20199;-77
2021/05/14 11:37:36;;;;;;;0.83;0.70;;;;;;;12.50;85.90;99848.22;5062277;28;20200;-75